createdAt,value
2022-08-12T00:02:14.075Z,3.30
2022-08-12T00:12:14.119Z,2.90
2022-08-12T00:22:14.431Z,4.50
2022-08-12T00:32:16.715Z,4.40
2022-08-12T00:42:15.709Z,4.70
2022-08-12T00:52:15.044Z,4.40
2022-08-12T01:02:15.114Z,4.50
2022-08-12T01:12:15.302Z,4.30
2022-08-12T01:22:15.338Z,4.10
2022-08-12T01:32:15.651Z,4.70
2022-08-12T01:42:15.700Z,4.30
2022-08-12T01:52:22.263Z,4.20
2022-08-12T02:02:17.100Z,4.00
2022-08-12T02:12:16.460Z,3.30
2022-08-12T02:22:16.494Z,3.90
2022-08-12T02:32:16.802Z,4.50
2022-08-12T02:42:16.826Z,4.40
2022-08-12T02:52:17.145Z,5.00
2022-08-12T03:02:17.178Z,4.60
2022-08-12T03:12:20.197Z,5.40
2022-08-12T03:22:17.530Z,4.50
2022-08-12T03:32:36.316Z,4.80
2022-08-12T03:42:18.916Z,5.30
2022-08-12T03:52:18.201Z,5.10
2022-08-12T04:02:18.234Z,5.50
2022-08-12T04:12:18.658Z,5.80
2022-08-12T04:22:18.692Z,5.10
2022-08-12T04:32:19.103Z,5.50
2022-08-12T04:42:19.126Z,5.60
2022-08-12T04:52:19.455Z,5.60
2022-08-12T05:02:22.112Z,5.70
2022-08-12T05:12:19.805Z,4.90
2022-08-12T05:22:19.833Z,5.50
2022-08-12T05:32:20.146Z,5.40
2022-08-12T05:42:20.193Z,5.00
2022-08-12T05:52:21.250Z,3.70
2022-08-12T06:02:20.579Z,3.40
2022-08-12T06:12:20.631Z,3.10
2022-08-12T06:22:20.929Z,3.20
2022-08-12T06:32:21.093Z,3.20
2022-08-12T06:42:32.904Z,3.00
2022-08-12T06:52:22.425Z,2.90
2022-08-12T07:02:21.841Z,3.70
2022-08-12T07:12:21.855Z,3.40
2022-08-12T07:22:22.182Z,3.50
2022-08-12T07:32:22.209Z,3.10
2022-08-12T07:42:22.525Z,3.10
2022-08-12T07:52:22.546Z,3.20
2022-08-12T08:02:26.451Z,3.50
2022-08-12T08:12:23.044Z,3.00
2022-08-12T08:22:25.026Z,3.70
2022-08-12T08:32:24.389Z,3.80
2022-08-12T08:42:23.675Z,3.40
2022-08-12T08:52:39.255Z,3.60
2022-08-12T09:02:24.781Z,2.90
2022-08-12T09:12:27.479Z,3.20
2022-08-12T09:22:29.255Z,3.30
2022-08-12T09:32:55.985Z,3.60
2022-08-12T09:42:40.405Z,3.30
2022-08-12T09:52:25.559Z,3.10
2022-08-12T10:02:45.267Z,2.90
2022-08-12T10:12:31.290Z,2.40
2022-08-12T10:22:37.206Z,3.00
2022-08-12T10:32:43.974Z,2.50
2022-08-12T10:42:28.963Z,2.50
2022-08-12T10:52:43.217Z,2.50
2022-08-12T11:04:27.161Z,1.80
2022-08-12T11:12:56.338Z,2.00
2022-08-12T11:22:26.807Z,1.70
2022-08-12T11:32:26.029Z,1.40
2022-08-12T11:42:26.155Z,1.50
2022-08-12T11:52:56.096Z,1.50
2022-08-12T12:02:27.373Z,1.60
2022-08-12T12:12:26.521Z,1.40
2022-08-12T12:22:30.743Z,1.50
2022-08-12T12:32:29.582Z,1.20
2022-08-12T12:42:45.064Z,1.50
2022-08-12T12:52:28.196Z,1.20
2022-08-12T13:02:31.735Z,1.40
2022-08-12T13:12:27.608Z,1.20
2022-08-12T13:22:27.757Z,1.30
2022-08-12T13:32:31.410Z,1.20
2022-08-12T13:42:28.086Z,1.60
2022-08-12T13:52:28.421Z,1.00
2022-08-12T14:02:28.493Z,1.20
2022-08-12T14:12:28.836Z,1.50
2022-08-12T14:22:28.914Z,1.30
2022-08-12T14:32:29.377Z,1.10
2022-08-12T14:42:29.299Z,1.20
2022-08-12T14:53:42.403Z,1.10
2022-08-12T15:02:30.551Z,1.30
2022-08-12T15:12:30.270Z,1.30
2022-08-12T15:22:37.982Z,1.50
2022-08-12T15:32:32.015Z,1.30
2022-08-12T15:42:30.307Z,1.20
2022-08-12T15:52:30.537Z,1.00
2022-08-12T16:02:30.859Z,1.20
2022-08-12T16:12:30.902Z,1.20
2022-08-12T16:22:31.212Z,1.10
2022-08-12T16:32:32.232Z,0.90
2022-08-12T16:42:31.468Z,1.20
2022-08-12T16:52:31.537Z,0.90
2022-08-12T17:02:34.308Z,0.80
2022-08-12T17:12:31.892Z,1.10
2022-08-12T17:22:32.069Z,1.10
2022-08-12T17:32:32.111Z,1.10
2022-08-12T17:42:35.395Z,1.30
2022-08-12T17:52:33.474Z,1.60
2022-08-12T18:02:32.553Z,1.10
2022-08-12T18:12:35.535Z,1.10
2022-08-12T18:22:33.085Z,1.20
2022-08-12T18:32:53.725Z,1.60
2022-08-12T18:42:34.191Z,1.00
2022-08-12T18:52:33.402Z,1.10
2022-08-12T19:02:36.133Z,1.10
2022-08-12T19:12:34.718Z,1.20
2022-08-12T19:22:33.960Z,1.60
2022-08-12T19:32:34.080Z,1.50
2022-08-12T19:42:35.499Z,3.70
2022-08-12T19:52:34.527Z,3.00
2022-08-12T20:02:34.897Z,2.80
2022-08-12T20:12:34.850Z,2.30
2022-08-12T20:22:35.037Z,1.60
2022-08-12T20:32:47.433Z,1.50
2022-08-12T20:42:36.159Z,1.60
2022-08-12T20:52:35.412Z,1.60
2022-08-12T21:02:35.807Z,1.50
2022-08-12T21:12:35.769Z,1.50
2022-08-12T21:22:36.009Z,1.20
2022-08-12T21:32:41.031Z,1.60
2022-08-12T21:42:36.234Z,1.40
2022-08-12T21:52:36.696Z,1.50
2022-08-12T22:02:36.691Z,1.40
2022-08-12T22:12:37.721Z,1.40
2022-08-12T22:22:37.069Z,1.70
2022-08-12T22:32:37.165Z,1.60
2022-08-12T22:42:37.182Z,1.70
2022-08-12T22:52:37.312Z,1.90
2022-08-12T23:02:37.511Z,1.80
2022-08-12T23:12:41.311Z,2.10
2022-08-12T23:22:40.162Z,1.60
2022-08-12T23:32:38.211Z,1.80
2022-08-12T23:42:38.450Z,1.60
2022-08-12T23:52:39.701Z,1.70
